createdAt,value
2024-03-04T00:01:35.887Z,93.30
2024-03-04T00:06:38.985Z,93.20
2024-03-04T00:11:43.588Z,93.20
2024-03-04T00:16:48.910Z,93.30
2024-03-04T00:21:52.218Z,93.20
2024-03-04T00:26:57.235Z,93.30
2024-03-04T00:32:00.610Z,93.30
2024-03-04T00:37:04.914Z,93.30
2024-03-04T00:42:09.789Z,93.30
2024-03-04T00:47:12.879Z,93.30
2024-03-04T00:52:16.390Z,93.30
2024-03-04T00:57:22.261Z,93.30
2024-03-04T01:02:25.637Z,93.30
2024-03-04T01:07:30.369Z,93.20
2024-03-04T01:12:34.922Z,93.10
2024-03-04T01:17:37.999Z,93.10
2024-03-04T01:22:41.847Z,93.20
2024-03-04T01:27:46.642Z,93.20
2024-03-04T01:32:49.829Z,93.20
2024-03-04T01:37:52.938Z,93.20
2024-03-04T01:42:58.015Z,93.20
2024-03-04T01:48:03.076Z,93.20
2024-03-04T01:53:07.397Z,93.20
2024-03-04T01:58:13.463Z,93.20
2024-03-04T02:03:18.997Z,93.20
2024-03-04T02:08:22.209Z,93.20
2024-03-04T02:13:27.072Z,93.20
2024-03-04T02:18:31.381Z,93.20
2024-03-04T02:23:35.912Z,93.20
2024-03-04T02:28:40.588Z,93.30
2024-03-04T02:33:45.834Z,93.30
2024-03-04T02:38:50.424Z,93.20
2024-03-04T02:43:53.482Z,93.10
2024-03-04T02:48:56.614Z,93.10
2024-03-04T02:54:01.082Z,93.20
2024-03-04T02:59:04.257Z,93.20
2024-03-04T03:04:07.362Z,93.20
2024-03-04T03:09:12.756Z,93.20
2024-03-04T03:14:16.669Z,93.20
2024-03-04T03:19:24.943Z,93.20
2024-03-04T03:24:29.442Z,93.20
2024-03-04T03:29:32.491Z,93.10
2024-03-04T03:34:35.806Z,93.20
2024-03-04T03:39:40.258Z,93.20
2024-03-04T03:44:43.336Z,93.10
2024-03-04T03:49:46.459Z,93.10
2024-03-04T03:54:50.911Z,93.10
2024-03-04T03:59:54.041Z,93.10
2024-03-04T04:04:57.185Z,93.10
2024-03-04T04:10:01.692Z,93.00
2024-03-04T04:15:05.373Z,93.00
2024-03-04T04:20:09.573Z,93.00
2024-03-04T04:25:14.700Z,93.10
2024-03-04T04:30:18.484Z,93.00
2024-03-04T04:35:21.807Z,93.20
2024-03-04T04:40:26.316Z,93.20
2024-03-04T04:45:29.442Z,93.10
2024-03-04T04:50:33.050Z,93.00
2024-03-04T04:55:38.323Z,93.00
2024-03-04T05:00:42.807Z,92.90
2024-03-04T05:05:45.902Z,93.00
2024-03-04T05:10:50.530Z,93.10
2024-03-04T05:15:54.326Z,93.10
2024-03-04T05:20:57.455Z,93.10
2024-03-04T05:26:02.124Z,93.10
2024-03-04T05:31:05.420Z,93.00
2024-03-04T05:36:09.929Z,93.00
2024-03-04T05:41:14.464Z,93.00
2024-03-04T05:46:17.669Z,93.00
2024-03-04T05:51:21.165Z,93.00
2024-03-04T05:56:25.585Z,93.00
2024-03-04T06:01:28.706Z,93.00
2024-03-04T06:06:31.792Z,93.10
2024-03-04T06:11:36.492Z,93.10
2024-03-04T06:16:39.704Z,93.10
2024-03-04T06:21:43.774Z,93.10
2024-03-04T06:26:49.584Z,93.20
2024-03-04T06:31:55.875Z,93.10
2024-03-04T06:36:59.375Z,93.10
2024-03-04T06:42:04.216Z,93.30
2024-03-04T06:47:07.629Z,92.90
2024-03-04T06:52:10.933Z,92.90
2024-03-04T06:57:18.404Z,92.90
2024-03-04T07:02:21.637Z,93.00
2024-03-04T07:07:26.113Z,93.00
2024-03-04T07:12:30.871Z,93.10
2024-03-04T07:17:35.712Z,93.10
2024-03-04T07:22:39.310Z,93.10
2024-03-04T07:27:43.815Z,92.90
2024-03-04T07:32:46.936Z,92.90
2024-03-04T07:37:50.054Z,93.00
2024-03-04T07:42:54.537Z,93.10
2024-03-04T07:47:58.209Z,93.10
2024-03-04T07:53:01.358Z,93.10
2024-03-04T07:58:06.236Z,93.00
2024-03-04T08:03:10.195Z,93.00
2024-03-04T08:08:13.237Z,93.10
2024-03-04T08:13:17.776Z,93.00
2024-03-04T08:18:21.293Z,93.10
2024-03-04T08:23:24.981Z,93.00
2024-03-04T08:28:35.187Z,92.90
2024-03-04T08:33:39.365Z,93.00
2024-03-04T08:38:42.423Z,93.00
2024-03-04T08:43:48.826Z,93.10
2024-03-04T08:48:52.027Z,93.00
2024-03-04T08:53:55.077Z,93.00
2024-03-04T08:59:00.990Z,93.00
2024-03-04T09:04:04.320Z,93.00
2024-03-04T09:09:09.625Z,93.00
2024-03-04T09:14:14.185Z,92.90
2024-03-04T09:19:17.464Z,93.00
2024-03-04T09:24:20.567Z,92.90
2024-03-04T09:29:26.002Z,92.90
2024-03-04T09:34:29.131Z,92.90
2024-03-04T09:39:32.260Z,92.80
2024-03-04T09:44:36.826Z,92.80
2024-03-04T09:49:40.677Z,92.90
2024-03-04T09:54:44.143Z,92.90
2024-03-04T09:59:50.482Z,92.90
2024-03-04T10:04:54.235Z,92.80
2024-03-04T10:09:58.575Z,92.80
2024-03-04T10:15:11.078Z,92.70
2024-03-04T10:20:14.827Z,92.70
2024-03-04T10:25:18.048Z,92.70
2024-03-04T10:30:25.789Z,92.70
2024-03-04T10:35:29.800Z,92.60
2024-03-04T10:40:35.282Z,92.50
2024-03-04T10:45:40.961Z,92.50
2024-03-04T10:50:44.064Z,92.40
2024-03-04T10:55:48.060Z,92.40
2024-03-04T11:00:52.620Z,92.30
2024-03-04T11:05:57.419Z,92.40
2024-03-04T11:11:04.974Z,92.30
2024-03-04T11:16:13.972Z,92.30
2024-03-04T11:21:17.558Z,92.30
2024-03-04T11:26:21.894Z,92.20
2024-03-04T11:31:27.896Z,92.20
2024-03-04T11:36:31.573Z,92.20
2024-03-04T11:41:41.907Z,92.10
2024-03-04T11:46:47.206Z,92.00
2024-03-04T11:51:58.709Z,92.00
2024-03-04T11:57:02.456Z,91.90
2024-03-04T12:02:13.176Z,91.90
2024-03-04T12:07:16.595Z,91.60
2024-03-04T12:12:19.746Z,91.60
2024-03-04T12:17:24.461Z,91.70
2024-03-04T12:22:31.563Z,91.70
2024-03-04T12:27:37.782Z,91.80
2024-03-04T12:32:42.790Z,91.90
2024-03-04T12:37:46.120Z,91.80
2024-03-04T12:42:54.120Z,91.80
2024-03-04T12:47:59.347Z,91.60
2024-03-04T12:53:02.697Z,91.50
2024-03-04T12:58:05.989Z,91.60
2024-03-04T13:03:10.449Z,91.60
2024-03-04T13:08:13.624Z,91.50
2024-03-04T13:13:16.734Z,91.40
2024-03-04T13:18:21.310Z,91.20
2024-03-04T13:23:24.408Z,91.20
2024-03-04T13:28:27.567Z,91.30
2024-03-04T13:33:32.085Z,91.20
2024-03-04T13:38:35.239Z,91.30
2024-03-04T13:43:38.643Z,91.20
2024-03-04T13:48:43.081Z,91.20
2024-03-04T13:53:48.586Z,91.10
2024-03-04T13:58:52.452Z,91.10
2024-03-04T14:03:56.947Z,91.20
2024-03-04T14:09:00.426Z,91.20
2024-03-04T14:14:03.501Z,91.20
2024-03-04T14:19:08.097Z,91.20
2024-03-04T14:24:11.368Z,91.20
2024-03-04T14:29:14.437Z,91.10
2024-03-04T14:34:18.900Z,91.10
2024-03-04T14:39:21.966Z,91.10
2024-03-04T14:44:25.055Z,91.00
2024-03-04T14:49:30.050Z,91.00
2024-03-04T14:54:33.166Z,90.80
2024-03-04T14:59:37.176Z,90.80
2024-03-04T15:04:42.637Z,90.80
2024-03-04T15:09:45.992Z,90.80
2024-03-04T15:14:49.068Z,91.00
2024-03-04T15:19:53.610Z,91.00
2024-03-04T15:24:56.935Z,91.00
2024-03-04T15:29:59.978Z,91.00
2024-03-04T15:35:07.545Z,90.90
2024-03-04T15:40:13.894Z,90.80
2024-03-04T15:45:17.200Z,91.00
2024-03-04T15:50:21.924Z,91.00
2024-03-04T15:55:25.010Z,91.00
2024-03-04T16:00:28.142Z,90.90
2024-03-04T16:05:32.641Z,90.90
2024-03-04T16:10:35.892Z,91.00
2024-03-04T16:15:45.265Z,91.00
2024-03-04T16:20:56.688Z,90.90
2024-03-04T16:25:59.947Z,90.90
2024-03-04T16:31:03.087Z,90.90
2024-03-04T16:36:08.335Z,90.90
2024-03-04T16:41:21.061Z,90.90
2024-03-04T16:46:24.119Z,90.90
2024-03-04T16:51:28.834Z,90.80
2024-03-04T16:56:32.809Z,90.80
2024-03-04T17:01:38.940Z,90.80
2024-03-04T17:06:47.696Z,90.90
2024-03-04T17:11:51.023Z,90.90
2024-03-04T17:16:56.361Z,90.80
2024-03-04T17:22:00.925Z,90.80
2024-03-04T17:27:04.105Z,90.90
2024-03-04T17:32:08.392Z,90.90
2024-03-04T17:37:12.878Z,90.90
2024-03-04T17:42:17.192Z,90.90
2024-03-04T17:47:21.566Z,90.90
2024-03-04T17:52:26.026Z,90.90
2024-03-04T17:57:29.338Z,90.90
2024-03-04T18:02:32.443Z,90.90
2024-03-04T18:07:37.054Z,90.90
2024-03-04T18:12:40.161Z,90.80
2024-03-04T18:17:43.796Z,90.80
2024-03-04T18:22:48.348Z,90.80
2024-03-04T18:27:51.687Z,90.90
2024-03-04T18:32:54.923Z,90.80
2024-03-04T18:38:00.128Z,90.90
2024-03-04T18:43:04.041Z,90.90
2024-03-04T18:48:08.220Z,90.80
2024-03-04T18:53:12.707Z,90.80
2024-03-04T18:58:15.834Z,90.90
2024-03-04T19:03:18.985Z,90.90
2024-03-04T19:08:23.442Z,90.90
2024-03-04T19:13:27.880Z,90.90
2024-03-04T19:18:30.946Z,91.00
2024-03-04T19:23:35.656Z,91.00
2024-03-04T19:28:38.886Z,91.00
2024-03-04T19:33:42.026Z,91.10
2024-03-04T19:38:46.543Z,91.10
2024-03-04T19:43:49.798Z,91.20
2024-03-04T19:48:54.016Z,91.20
2024-03-04T19:53:59.193Z,91.20
2024-03-04T19:59:02.425Z,91.20
2024-03-04T20:04:05.840Z,91.20
2024-03-04T20:09:14.707Z,91.20
2024-03-04T20:14:17.869Z,91.20
2024-03-04T20:19:20.999Z,91.20
2024-03-04T20:24:25.891Z,91.20
2024-03-04T20:29:28.931Z,91.20
2024-03-04T20:34:32.097Z,91.20
2024-03-04T20:39:36.593Z,91.30
2024-03-04T20:44:39.987Z,91.30
2024-03-04T20:49:43.433Z,91.30
2024-03-04T20:54:47.940Z,91.30
2024-03-04T20:59:51.029Z,91.30
2024-03-04T21:04:54.417Z,91.30
2024-03-04T21:09:58.908Z,91.20
2024-03-04T21:15:01.992Z,91.20
2024-03-04T21:20:06.272Z,91.20
2024-03-04T21:25:13.229Z,91.20
2024-03-04T21:30:16.961Z,91.20
2024-03-04T21:35:20.277Z,91.20
2024-03-04T21:40:24.945Z,91.20
2024-03-04T21:45:28.072Z,91.20
2024-03-04T21:50:31.123Z,91.30
2024-03-04T21:55:35.617Z,91.30
2024-03-04T22:00:38.886Z,91.30
2024-03-04T22:05:41.948Z,91.30
2024-03-04T22:10:46.508Z,91.30
2024-03-04T22:15:49.877Z,91.30
2024-03-04T22:20:52.983Z,91.40
2024-03-04T22:25:57.483Z,91.40
2024-03-04T22:31:00.621Z,91.40
2024-03-04T22:36:04.367Z,91.40
2024-03-04T22:41:08.786Z,91.40
2024-03-04T22:46:11.983Z,91.40
2024-03-04T22:51:15.162Z,91.40
2024-03-04T22:56:19.645Z,91.40
2024-03-04T23:01:29.865Z,91.40
2024-03-04T23:06:33.149Z,91.40
2024-03-04T23:11:37.806Z,91.40
2024-03-04T23:16:42.502Z,91.40
2024-03-04T23:21:47.525Z,91.40
2024-03-04T23:26:51.927Z,91.40
2024-03-04T23:31:55.483Z,91.40
2024-03-04T23:36:59.433Z,91.40
2024-03-04T23:42:03.936Z,91.40
2024-03-04T23:47:08.266Z,91.40
2024-03-04T23:52:11.298Z,91.40
2024-03-04T23:57:15.801Z,91.30
